Terminal Aerodrome Forecast
Issued by NWS Albuquerque, NM

Home | Current Version | Previous Version | Text Only | Print | Product List | Glossary On
Versions: 1 2 3 4 5 6 7 8 9 10 11 12 13
000
FTUS45 KABQ 261100
TAFABQ
TAF
KABQ 261120Z 2612/2712 35007KT P6SM SKC
     FM261800 17006KT P6SM FEW250
     FM270000 02007KT P6SM BKN200
     FM270700 08007KT P6SM BKN150=

USA.gov is the U.S. government's official web portal to all federal, state and local government web resources and services.